createdAt,value
2022-09-15T00:01:27.587Z,2.65
2022-09-15T00:03:55.774Z,3.05
2022-09-15T00:06:23.864Z,2.80
2022-09-15T00:08:52.337Z,2.88
2022-09-15T00:11:22.858Z,2.67
2022-09-15T00:13:51.943Z,2.50
2022-09-15T00:16:22.574Z,2.70
2022-09-15T00:18:52.076Z,2.30
2022-09-15T00:21:23.247Z,2.20
2022-09-15T00:23:52.129Z,2.38
2022-09-15T00:26:22.292Z,2.22
2022-09-15T00:28:51.240Z,2.00
2022-09-15T00:31:21.859Z,2.28
2022-09-15T00:33:52.763Z,2.50
2022-09-15T00:36:23.013Z,3.22
2022-09-15T00:38:51.679Z,2.55
2022-09-15T00:41:22.316Z,2.20
2022-09-15T00:43:53.966Z,2.15
2022-09-15T00:46:24.528Z,2.20
2022-09-15T00:48:59.634Z,1.67
2022-09-15T00:51:33.552Z,2.25
2022-09-15T00:54:05.071Z,2.08
2022-09-15T00:56:35.908Z,1.75
2022-09-15T00:59:09.937Z,1.73
2022-09-15T01:01:38.207Z,2.10
2022-09-15T01:04:07.725Z,2.10
2022-09-15T01:06:39.000Z,1.65
2022-09-15T01:09:11.623Z,1.80
2022-09-15T01:11:41.190Z,1.58
2022-09-15T01:14:09.454Z,1.52
2022-09-15T01:16:48.596Z,1.40
2022-09-15T01:19:49.227Z,1.85
2022-09-15T01:22:32.361Z,2.10
2022-09-15T01:25:09.412Z,1.70
2022-09-15T01:28:16.849Z,2.13
2022-09-15T01:30:50.878Z,1.95
2022-09-15T01:33:30.871Z,1.95
2022-09-15T01:36:05.586Z,2.00
2022-09-15T01:38:50.876Z,2.38
2022-09-15T01:41:25.817Z,2.00
2022-09-15T01:44:00.409Z,2.20
2022-09-15T01:46:33.808Z,2.60
2022-09-15T01:49:04.848Z,2.13
2022-09-15T01:51:34.410Z,2.20
2022-09-15T01:54:05.042Z,2.60
2022-09-15T01:56:33.232Z,2.55
2022-09-15T01:59:01.399Z,3.10
2022-09-15T02:01:40.577Z,3.40
2022-09-15T02:04:14.444Z,3.00
2022-09-15T02:06:53.223Z,3.30
2022-09-15T02:09:25.892Z,3.55
2022-09-15T02:12:03.898Z,4.15
2022-09-15T02:14:43.049Z,4.50
2022-09-15T02:17:16.975Z,4.40
2022-09-15T02:19:48.788Z,4.35
2022-09-15T02:22:23.224Z,4.60
2022-09-15T02:24:58.289Z,4.57
2022-09-15T02:27:32.685Z,5.50
2022-09-15T02:30:06.365Z,5.93
2022-09-15T02:32:38.271Z,5.95
2022-09-15T02:35:09.904Z,6.60
2022-09-15T02:37:39.067Z,6.93
2022-09-15T02:40:08.854Z,7.00
2022-09-15T02:42:37.555Z,7.82
2022-09-15T02:45:06.440Z,6.20
2022-09-15T02:47:35.887Z,6.68
2022-09-15T02:50:04.088Z,6.35
2022-09-15T02:52:32.430Z,6.65
2022-09-15T02:55:00.817Z,5.93
2022-09-15T02:57:28.934Z,5.80
2022-09-15T03:00:16.758Z,5.32
2022-09-15T03:02:50.217Z,4.70
2022-09-15T03:05:21.271Z,3.30
2022-09-15T03:07:49.559Z,1.95
2022-09-15T03:10:18.163Z,1.80
2022-09-15T03:12:49.602Z,1.30
2022-09-15T03:15:19.956Z,1.10
2022-09-15T03:17:49.844Z,1.20
2022-09-15T03:20:20.584Z,0.60
2022-09-15T03:22:49.871Z,0.70
2022-09-15T03:25:20.136Z,0.57
2022-09-15T03:27:49.008Z,0.40
2022-09-15T03:30:17.552Z,0.50
2022-09-15T03:32:45.887Z,0.50
2022-09-15T03:35:15.706Z,0.30
2022-09-15T03:37:44.464Z,0.40
2022-09-15T03:40:13.075Z,0.30
2022-09-15T03:42:41.422Z,0.30
2022-09-15T03:45:10.159Z,0.40
2022-09-15T03:47:39.066Z,0.40
2022-09-15T03:50:07.897Z,0.30
2022-09-15T03:52:37.670Z,0.40
2022-09-15T03:55:06.695Z,0.70
2022-09-15T03:57:34.812Z,0.40
2022-09-15T04:00:03.709Z,0.65
2022-09-15T04:02:33.034Z,0.40
2022-09-15T04:08:06.811Z,0.80
2022-09-15T04:10:46.138Z,0.63
2022-09-15T04:13:14.627Z,0.90
2022-09-15T04:15:44.299Z,0.80
2022-09-15T04:18:14.181Z,1.42
2022-09-15T04:20:49.751Z,1.90
2022-09-15T04:23:20.084Z,2.40
2022-09-15T04:25:56.587Z,2.40
2022-09-15T04:28:33.263Z,2.78
2022-09-15T04:31:10.749Z,2.78
2022-09-15T04:33:40.772Z,2.63
2022-09-15T04:36:11.682Z,3.17
2022-09-15T04:38:42.215Z,2.97
2022-09-15T04:41:11.860Z,3.30
2022-09-15T04:43:40.488Z,3.88
2022-09-15T04:46:16.635Z,3.78
2022-09-15T04:48:46.489Z,3.83
2022-09-15T04:51:16.745Z,4.03
2022-09-15T04:53:46.979Z,4.32
2022-09-15T04:56:17.915Z,4.07
2022-09-15T04:58:48.222Z,4.53
2022-09-15T05:01:18.958Z,4.80
2022-09-15T05:03:48.036Z,4.85
2022-09-15T05:06:18.001Z,5.60
2022-09-15T05:08:51.059Z,5.40
2022-09-15T05:11:19.874Z,5.35
2022-09-15T05:13:49.035Z,5.60
2022-09-15T05:16:20.362Z,5.55
2022-09-15T05:18:52.239Z,5.90
2022-09-15T05:21:22.178Z,6.00
2022-09-15T05:23:52.680Z,5.70
2022-09-15T05:26:22.941Z,5.03
2022-09-15T05:28:51.176Z,4.72
2022-09-15T05:31:21.002Z,5.63
2022-09-15T05:33:51.192Z,5.20
2022-09-15T05:36:21.118Z,4.75
2022-09-15T05:38:50.772Z,5.10
2022-09-15T05:41:19.933Z,6.68
2022-09-15T05:43:49.347Z,5.45
2022-09-15T05:46:29.306Z,4.88
2022-09-15T05:48:59.381Z,4.45
2022-09-15T05:51:28.112Z,4.80
2022-09-15T05:53:57.725Z,5.05
2022-09-15T05:56:25.985Z,5.40
2022-09-15T05:58:54.068Z,5.50
2022-09-15T06:01:24.430Z,5.35
2022-09-15T06:03:53.356Z,5.20
2022-09-15T06:06:22.831Z,5.50
2022-09-15T06:08:58.004Z,5.60
2022-09-15T06:11:29.848Z,5.93
2022-09-15T06:14:00.583Z,5.30
2022-09-15T06:16:29.044Z,5.50
2022-09-15T06:18:59.790Z,5.65
2022-09-15T06:21:30.184Z,5.97
2022-09-15T06:24:00.155Z,5.18
2022-09-15T06:26:29.942Z,5.05
2022-09-15T06:29:00.412Z,5.82
2022-09-15T06:31:31.442Z,5.65
2022-09-15T06:34:00.629Z,5.28
2022-09-15T06:36:30.591Z,5.78
2022-09-15T06:38:59.956Z,5.18
2022-09-15T06:41:47.065Z,4.95
2022-09-15T06:44:19.793Z,6.22
2022-09-15T06:46:48.379Z,6.13
2022-09-15T06:49:16.592Z,5.65
2022-09-15T06:51:44.897Z,6.00
2022-09-15T06:54:14.501Z,5.50
2022-09-15T06:56:45.135Z,5.80
2022-09-15T06:59:13.504Z,5.88
2022-09-15T07:01:42.262Z,5.50
2022-09-15T07:04:10.806Z,5.82
2022-09-15T07:06:40.536Z,5.60
2022-09-15T07:09:09.974Z,5.20
2022-09-15T07:11:38.617Z,5.72
2022-09-15T07:14:08.353Z,5.38
2022-09-15T07:16:36.737Z,4.82
2022-09-15T07:19:06.035Z,5.45
2022-09-15T07:21:34.758Z,4.30
2022-09-15T07:24:07.036Z,4.40
2022-09-15T07:26:36.353Z,4.93
2022-09-15T07:29:07.324Z,4.90
2022-09-15T07:31:39.756Z,4.90
2022-09-15T07:34:08.462Z,4.72
2022-09-15T07:36:37.017Z,4.72
2022-09-15T07:39:06.109Z,3.72
2022-09-15T07:41:35.164Z,3.90
2022-09-15T07:44:03.860Z,3.90
2022-09-15T07:46:33.838Z,3.60
2022-09-15T07:49:03.854Z,2.90
2022-09-15T07:51:32.147Z,3.10
2022-09-15T07:54:00.741Z,3.03
2022-09-15T07:56:28.908Z,2.75
2022-09-15T07:58:58.365Z,2.50
2022-09-15T08:01:27.050Z,2.70
2022-09-15T08:03:55.394Z,2.65
2022-09-15T08:06:26.779Z,1.95
2022-09-15T08:09:00.099Z,1.90
2022-09-15T08:11:29.938Z,1.60
2022-09-15T08:14:01.177Z,2.08
2022-09-15T08:16:29.576Z,1.80
2022-09-15T08:18:57.796Z,1.90
2022-09-15T08:21:28.253Z,2.00
2022-09-15T08:23:58.418Z,1.63
2022-09-15T08:26:27.400Z,1.65
2022-09-15T08:28:55.607Z,2.00
2022-09-15T08:31:25.209Z,1.58
2022-09-15T08:33:55.233Z,1.52
2022-09-15T08:36:24.487Z,1.80
2022-09-15T08:38:54.495Z,1.80
2022-09-15T08:41:28.526Z,1.70
2022-09-15T08:44:03.385Z,1.58
2022-09-15T08:46:36.093Z,1.55
2022-09-15T08:49:10.688Z,1.48
2022-09-15T08:51:49.042Z,1.70
2022-09-15T08:54:23.311Z,1.88
2022-09-15T08:56:52.292Z,1.75
2022-09-15T08:59:21.680Z,1.85
2022-09-15T09:02:25.247Z,1.52
2022-09-15T09:05:03.882Z,2.08
2022-09-15T09:07:51.265Z,1.90
2022-09-15T09:10:31.607Z,1.75
2022-09-15T09:13:15.702Z,2.08
2022-09-15T09:15:56.300Z,1.98
2022-09-15T09:18:49.811Z,2.08
2022-09-15T09:21:24.699Z,2.08
2022-09-15T09:23:58.534Z,2.25
2022-09-15T09:26:30.768Z,2.33
2022-09-15T09:29:00.872Z,2.15
2022-09-15T09:31:29.946Z,1.88
2022-09-15T09:34:06.768Z,2.00
2022-09-15T09:36:35.430Z,2.00
2022-09-15T09:39:05.194Z,1.98
2022-09-15T09:41:38.891Z,2.40
2022-09-15T09:44:11.537Z,1.70
2022-09-15T09:46:39.971Z,2.13
2022-09-15T09:49:17.419Z,2.05
2022-09-15T09:51:53.825Z,2.15
2022-09-15T09:54:24.953Z,1.98
2022-09-15T09:56:56.509Z,2.35
2022-09-15T09:59:41.536Z,2.38
2022-09-15T10:02:25.692Z,2.10
2022-09-15T10:04:55.473Z,2.00
2022-09-15T10:07:26.705Z,2.13
2022-09-15T10:09:57.586Z,2.75
2022-09-15T10:12:34.153Z,2.25
2022-09-15T10:15:05.675Z,1.88
2022-09-15T10:17:43.542Z,1.95
2022-09-15T10:20:32.293Z,2.10
2022-09-15T10:23:06.419Z,1.40
2022-09-15T10:25:57.979Z,1.48
2022-09-15T10:28:28.214Z,1.65
2022-09-15T10:31:07.786Z,1.55
2022-09-15T10:33:38.001Z,1.60
2022-09-15T10:36:08.721Z,1.98
2022-09-15T10:38:43.743Z,1.50
2022-09-15T10:41:23.198Z,1.70
2022-09-15T10:44:21.429Z,1.85
2022-09-15T10:46:59.588Z,2.05
2022-09-15T10:49:44.602Z,2.15
2022-09-15T10:52:22.632Z,2.47
2022-09-15T10:55:09.264Z,2.40
2022-09-15T10:58:01.191Z,2.20
2022-09-15T11:00:41.084Z,2.33
2022-09-15T11:03:38.774Z,2.50
2022-09-15T11:06:17.663Z,2.00
2022-09-15T11:08:59.523Z,2.90
2022-09-15T11:11:35.987Z,2.78
2022-09-15T11:14:28.359Z,2.90
2022-09-15T11:17:11.506Z,2.88
2022-09-15T11:19:59.874Z,2.55
2022-09-15T11:22:35.034Z,3.22
2022-09-15T11:25:07.284Z,3.10
2022-09-15T11:27:41.002Z,3.00
2022-09-15T11:30:17.639Z,2.88
2022-09-15T11:32:54.301Z,3.63
2022-09-15T11:35:39.312Z,3.17
2022-09-15T11:38:22.203Z,4.40
2022-09-15T11:40:55.900Z,4.13
2022-09-15T11:43:34.917Z,4.28
2022-09-15T11:46:08.879Z,4.47
2022-09-15T11:48:42.867Z,4.55
2022-09-15T11:51:14.340Z,5.00
2022-09-15T11:53:50.623Z,5.32
2022-09-15T11:56:25.534Z,5.85
2022-09-15T11:59:05.616Z,5.53
2022-09-15T12:01:41.030Z,6.13
2022-09-15T12:04:17.336Z,5.38
2022-09-15T12:06:52.257Z,5.13
2022-09-15T12:09:21.706Z,5.85
2022-09-15T12:11:52.893Z,5.43
2022-09-15T12:14:28.988Z,5.68
2022-09-15T12:16:58.535Z,6.07
2022-09-15T12:19:43.124Z,5.05
2022-09-15T12:22:18.079Z,5.03
2022-09-15T12:24:52.000Z,5.88
2022-09-15T12:27:22.154Z,5.35
2022-09-15T12:29:51.877Z,5.05
2022-09-15T12:32:23.241Z,5.05
2022-09-15T12:35:32.119Z,5.47
2022-09-15T12:38:01.599Z,5.13
2022-09-15T12:40:36.964Z,4.63
2022-09-15T12:43:19.304Z,4.82
2022-09-15T12:45:55.932Z,4.38
2022-09-15T12:48:28.169Z,3.95
2022-09-15T12:51:00.573Z,3.03
2022-09-15T12:53:31.326Z,3.90
2022-09-15T12:56:05.642Z,3.22
2022-09-15T12:58:39.611Z,3.40
2022-09-15T13:01:33.923Z,3.08
2022-09-15T13:04:43.690Z,2.78
2022-09-15T13:07:34.264Z,2.72
2022-09-15T13:10:31.780Z,3.00
2022-09-15T13:13:22.042Z,2.90
2022-09-15T13:15:54.068Z,2.75
2022-09-15T13:18:23.145Z,3.03
2022-09-15T13:20:55.882Z,2.78
2022-09-15T13:23:28.200Z,2.90
2022-09-15T13:26:00.776Z,3.03
2022-09-15T13:28:29.568Z,2.53
2022-09-15T13:31:17.184Z,2.65
2022-09-15T13:41:06.745Z,2.80
2022-09-15T13:44:10.285Z,2.08
2022-09-15T13:46:48.634Z,2.20
2022-09-15T13:49:36.673Z,2.30
2022-09-15T13:52:18.843Z,2.40
2022-09-15T13:55:17.194Z,2.50
2022-09-15T14:00:48.221Z,2.00
2022-09-15T14:03:23.880Z,2.45
2022-09-15T14:05:53.282Z,1.70
2022-09-15T14:08:24.958Z,2.38
2022-09-15T14:10:57.324Z,2.17
2022-09-15T14:13:29.633Z,1.83
2022-09-15T14:15:59.980Z,2.25
2022-09-15T14:18:28.689Z,1.90
2022-09-15T14:21:02.134Z,2.00
2022-09-15T14:23:31.586Z,2.58
2022-09-15T14:26:02.231Z,2.13
2022-09-15T14:28:33.578Z,2.40
2022-09-15T14:31:02.913Z,2.30
2022-09-15T14:33:38.039Z,2.40
2022-09-15T14:36:22.396Z,2.42
2022-09-15T14:39:08.671Z,2.80
2022-09-15T14:41:37.416Z,2.70
2022-09-15T14:47:13.889Z,2.88
2022-09-15T14:49:43.745Z,3.35
2022-09-15T14:52:25.270Z,2.65
2022-09-15T14:54:57.812Z,2.20
2022-09-15T14:57:31.063Z,2.55
2022-09-15T15:00:05.189Z,2.80
2022-09-15T15:02:46.585Z,2.80
2022-09-15T15:05:22.598Z,2.40
2022-09-15T15:07:52.777Z,2.20
2022-09-15T15:10:23.967Z,2.42
2022-09-15T15:12:55.698Z,2.67
2022-09-15T15:15:25.884Z,2.42
2022-09-15T15:17:55.435Z,2.60
2022-09-15T15:20:25.589Z,2.40
2022-09-15T15:23:15.629Z,2.53
2022-09-15T15:25:44.475Z,2.83
2022-09-15T15:28:31.692Z,2.50
2022-09-15T15:31:16.361Z,2.50
2022-09-15T15:33:49.293Z,2.80
2022-09-15T15:36:23.841Z,2.40
2022-09-15T15:38:54.500Z,3.15
2022-09-15T15:41:25.391Z,2.00
2022-09-15T15:44:08.211Z,2.45
2022-09-15T15:46:54.187Z,3.30
2022-09-15T15:49:27.449Z,3.55
2022-09-15T15:51:56.301Z,3.95
2022-09-15T15:54:25.115Z,2.55
2022-09-15T15:56:53.689Z,2.13
2022-09-15T15:59:22.451Z,2.25
2022-09-15T16:01:53.765Z,2.28
2022-09-15T16:04:22.461Z,2.00
2022-09-15T16:06:54.700Z,1.80
2022-09-15T16:09:23.125Z,1.80
2022-09-15T16:11:51.286Z,1.90
2022-09-15T16:14:21.044Z,2.10
2022-09-15T16:16:51.757Z,1.70
2022-09-15T16:19:21.260Z,1.92
2022-09-15T16:21:49.620Z,1.90
2022-09-15T16:24:17.802Z,1.88
2022-09-15T16:26:47.801Z,2.10
2022-09-15T16:29:18.976Z,2.35
2022-09-15T16:31:48.055Z,1.85
2022-09-15T16:34:18.611Z,1.60
2022-09-15T16:36:48.277Z,1.80
2022-09-15T16:39:16.486Z,2.08
2022-09-15T16:41:45.082Z,1.83
2022-09-15T16:44:19.907Z,1.92
2022-09-15T16:46:50.515Z,1.92
2022-09-15T16:49:21.699Z,2.00
2022-09-15T16:51:54.820Z,2.03
2022-09-15T16:54:23.157Z,1.85
2022-09-15T16:56:52.384Z,1.98
2022-09-15T16:59:21.298Z,2.25
2022-09-15T17:01:49.561Z,1.92
2022-09-15T17:04:19.136Z,1.63
2022-09-15T17:06:47.503Z,1.75
2022-09-15T17:09:17.061Z,2.05
2022-09-15T17:11:46.141Z,2.05
2022-09-15T17:14:16.094Z,1.80
2022-09-15T17:16:47.295Z,2.20
2022-09-15T17:19:17.055Z,2.15
2022-09-15T17:21:46.100Z,1.73
2022-09-15T17:24:17.333Z,2.00
2022-09-15T17:26:46.234Z,1.95
2022-09-15T17:29:14.704Z,1.63
2022-09-15T17:31:43.223Z,2.10
2022-09-15T17:34:14.743Z,1.90
2022-09-15T17:36:42.891Z,1.83
2022-09-15T17:39:11.083Z,1.77
2022-09-15T17:41:40.606Z,1.85
2022-09-15T17:44:11.784Z,2.03
2022-09-15T17:46:40.161Z,1.90
2022-09-15T17:49:08.534Z,2.40
2022-09-15T17:51:36.676Z,1.92
2022-09-15T17:54:07.288Z,2.10
2022-09-15T17:56:35.663Z,2.10
2022-09-15T17:59:06.110Z,2.03
2022-09-15T18:01:34.389Z,1.90
2022-09-15T18:04:03.025Z,1.83
2022-09-15T18:06:31.567Z,2.55
2022-09-15T18:09:00.117Z,2.10
2022-09-15T18:11:28.818Z,2.80
2022-09-15T18:14:01.101Z,3.58
2022-09-15T18:16:33.495Z,2.17
2022-09-15T18:19:01.780Z,2.55
2022-09-15T18:21:30.714Z,2.10
2022-09-15T18:23:58.915Z,1.90
2022-09-15T18:26:27.200Z,2.72
2022-09-15T18:28:55.897Z,2.30
2022-09-15T18:31:24.191Z,3.13
2022-09-15T18:33:54.208Z,2.40
2022-09-15T18:36:22.531Z,2.90
2022-09-15T18:38:50.886Z,3.10
2022-09-15T18:41:19.395Z,2.10
2022-09-15T18:43:48.965Z,2.15
2022-09-15T18:46:17.354Z,2.58
2022-09-15T18:48:47.994Z,2.00
2022-09-15T18:51:24.229Z,2.72
2022-09-15T18:53:58.402Z,2.30
2022-09-15T18:56:26.725Z,3.67
2022-09-15T18:58:56.193Z,2.60
2022-09-15T19:01:24.814Z,2.33
2022-09-15T19:03:53.237Z,2.22
2022-09-15T19:06:22.931Z,2.22
2022-09-15T19:08:52.192Z,2.40
2022-09-15T19:11:20.921Z,2.63
2022-09-15T19:13:49.427Z,1.88
2022-09-15T19:16:20.155Z,2.10
2022-09-15T19:18:51.980Z,2.22
2022-09-15T19:21:23.944Z,2.88
2022-09-15T19:23:59.009Z,2.10
2022-09-15T19:26:29.462Z,1.95
2022-09-15T19:28:58.670Z,1.80
2022-09-15T19:31:27.441Z,2.22
2022-09-15T19:33:55.720Z,1.77
2022-09-15T19:36:28.473Z,1.80
2022-09-15T19:39:04.594Z,2.90
2022-09-15T19:41:32.935Z,1.88
2022-09-15T19:44:03.266Z,2.35
2022-09-15T19:46:31.597Z,2.20
2022-09-15T19:48:59.898Z,28.88
2022-09-15T19:51:28.450Z,4.70
2022-09-15T19:53:57.456Z,1.88
2022-09-15T19:56:28.559Z,1.88
2022-09-15T19:58:58.239Z,2.90
2022-09-15T20:01:28.931Z,2.28
2022-09-15T20:03:58.202Z,1.88
2022-09-15T20:06:32.305Z,2.50
2022-09-15T20:09:01.385Z,2.30
2022-09-15T20:11:32.136Z,2.00
2022-09-15T20:14:20.745Z,1.80
2022-09-15T20:16:49.107Z,2.00
2022-09-15T20:19:17.776Z,2.20
2022-09-15T20:21:50.847Z,2.10
2022-09-15T20:24:20.965Z,3.78
2022-09-15T20:26:51.433Z,1.73
2022-09-15T20:29:20.444Z,2.55
2022-09-15T20:31:49.307Z,2.10
2022-09-15T20:34:18.761Z,1.80
2022-09-15T20:36:49.732Z,1.67
2022-09-15T20:39:22.124Z,1.67
2022-09-15T20:41:51.926Z,1.92
2022-09-15T20:44:20.583Z,1.80
2022-09-15T20:46:49.213Z,1.60
2022-09-15T20:49:20.535Z,1.42
2022-09-15T20:51:51.805Z,1.80
2022-09-15T20:54:20.620Z,1.42
2022-09-15T20:56:48.906Z,1.30
2022-09-15T20:59:18.705Z,1.50
2022-09-15T21:01:47.173Z,1.30
2022-09-15T21:04:15.511Z,1.30
2022-09-15T21:06:44.111Z,9.25
2022-09-15T21:09:12.545Z,2.30
2022-09-15T21:11:43.155Z,5.75
2022-09-15T21:14:14.091Z,1.50
2022-09-15T21:16:44.655Z,1.10
2022-09-15T21:19:13.124Z,1.50
2022-09-15T21:21:41.503Z,1.63
2022-09-15T21:24:10.381Z,1.50
2022-09-15T21:27:01.458Z,1.40
2022-09-15T21:29:29.948Z,1.30
2022-09-15T21:31:59.691Z,2.00
2022-09-15T21:34:28.434Z,1.83
2022-09-15T21:36:56.910Z,1.40
2022-09-15T21:39:25.457Z,1.42
2022-09-15T21:41:54.135Z,1.50
2022-09-15T21:44:22.567Z,1.60
2022-09-15T21:46:52.722Z,3.00
2022-09-15T21:49:25.147Z,2.70
2022-09-15T21:51:53.546Z,1.40
2022-09-15T21:54:21.952Z,1.92
2022-09-15T21:56:50.545Z,1.50
2022-09-15T21:59:21.221Z,1.35
2022-09-15T22:01:49.832Z,1.77
2022-09-15T22:04:18.495Z,1.45
2022-09-15T22:06:50.157Z,1.60
2022-09-15T22:09:21.363Z,1.20
2022-09-15T22:11:50.204Z,1.13
2022-09-15T22:14:18.835Z,2.05
2022-09-15T22:16:47.115Z,1.40
2022-09-15T22:19:15.533Z,1.02
2022-09-15T22:21:43.671Z,1.27
2022-09-15T22:24:14.664Z,1.23
2022-09-15T22:26:43.667Z,1.42
2022-09-15T22:29:12.578Z,1.55
2022-09-15T22:31:41.978Z,1.30
2022-09-15T22:34:10.304Z,1.25
2022-09-15T22:36:38.449Z,1.55
2022-09-15T22:39:06.700Z,1.27
2022-09-15T22:41:38.421Z,1.75
2022-09-15T22:44:07.730Z,1.40
2022-09-15T22:46:36.125Z,1.73
2022-09-15T22:49:04.714Z,1.83
2022-09-15T22:51:32.906Z,1.60
2022-09-15T22:54:02.985Z,1.60
2022-09-15T22:56:31.313Z,1.60
2022-09-15T22:59:00.952Z,1.55
2022-09-15T23:01:31.052Z,1.17
2022-09-15T23:04:00.905Z,1.42
2022-09-15T23:06:32.058Z,1.45
2022-09-15T23:09:03.227Z,1.50
2022-09-15T23:11:33.168Z,1.35
2022-09-15T23:14:02.979Z,1.10
2022-09-15T23:16:31.950Z,1.42
2022-09-15T23:19:00.628Z,1.25
2022-09-15T23:21:29.403Z,1.40
2022-09-15T23:23:59.148Z,1.58
2022-09-15T23:26:28.350Z,1.60
2022-09-15T23:28:56.926Z,1.40
2022-09-15T23:31:26.448Z,1.50
2022-09-15T23:33:54.811Z,1.65
2022-09-15T23:36:23.084Z,1.25
2022-09-15T23:38:51.388Z,1.63
2022-09-15T23:41:19.947Z,1.20
2022-09-15T23:43:48.241Z,1.50
2022-09-15T23:46:16.833Z,1.42
2022-09-15T23:48:46.383Z,1.20
2022-09-15T23:51:14.874Z,1.20
2022-09-15T23:53:43.816Z,1.40
2022-09-15T23:56:11.922Z,1.30
2022-09-15T23:58:40.132Z,1.30
